sensor_id;sensor_type;location;lat;lon;timestamp;P1;durP1;ratioP1;P2;durP2;ratioP2
34433;SDS011;34290;48.562;13.384;2023-04-24T00:00:15;2.13;;;1.70;;
34433;SDS011;34290;48.562;13.384;2023-04-24T00:02:43;2.55;;;2.05;;
34433;SDS011;34290;48.562;13.384;2023-04-24T00:05:13;3.45;;;1.83;;
34433;SDS011;34290;48.562;13.384;2023-04-24T00:07:42;2.35;;;1.88;;
34433;SDS011;34290;48.562;13.384;2023-04-24T00:10:10;4.20;;;1.90;;
34433;SDS011;34290;48.562;13.384;2023-04-24T00:12:37;2.78;;;1.92;;
34433;SDS011;34290;48.562;13.384;2023-04-24T00:15:05;4.35;;;1.63;;
34433;SDS011;34290;48.562;13.384;2023-04-24T00:17:33;3.78;;;1.55;;
34433;SDS011;34290;48.562;13.384;2023-04-24T00:20:00;3.45;;;1.88;;
34433;SDS011;34290;48.562;13.384;2023-04-24T00:22:31;3.63;;;1.67;;
34433;SDS011;34290;48.562;13.384;2023-04-24T00:24:58;4.72;;;1.83;;
34433;SDS011;34290;48.562;13.384;2023-04-24T00:27:25;2.95;;;1.98;;
34433;SDS011;34290;48.562;13.384;2023-04-24T00:29:52;4.72;;;1.85;;
34433;SDS011;34290;48.562;13.384;2023-04-24T00:32:19;3.25;;;2.10;;
34433;SDS011;34290;48.562;13.384;2023-04-24T00:34:46;4.05;;;2.10;;
34433;SDS011;34290;48.562;13.384;2023-04-24T00:37:13;4.90;;;1.98;;
34433;SDS011;34290;48.562;13.384;2023-04-24T00:39:41;4.05;;;2.05;;
34433;SDS011;34290;48.562;13.384;2023-04-24T00:42:08;3.38;;;2.13;;
34433;SDS011;34290;48.562;13.384;2023-04-24T00:44:35;4.32;;;1.98;;
34433;SDS011;34290;48.562;13.384;2023-04-24T00:47:03;3.15;;;1.92;;
34433;SDS011;34290;48.562;13.384;2023-04-24T00:49:30;5.30;;;2.05;;
34433;SDS011;34290;48.562;13.384;2023-04-24T00:51:57;2.65;;;2.08;;
34433;SDS011;34290;48.562;13.384;2023-04-24T00:54:24;5.72;;;2.30;;
34433;SDS011;34290;48.562;13.384;2023-04-24T00:56:53;3.80;;;2.05;;
34433;SDS011;34290;48.562;13.384;2023-04-24T00:59:20;3.88;;;2.30;;
34433;SDS011;34290;48.562;13.384;2023-04-24T01:01:47;3.78;;;2.05;;
34433;SDS011;34290;48.562;13.384;2023-04-24T01:04:14;7.60;;;2.22;;
34433;SDS011;34290;48.562;13.384;2023-04-24T01:06:43;5.53;;;2.65;;
34433;SDS011;34290;48.562;13.384;2023-04-24T01:09:11;5.25;;;2.45;;
34433;SDS011;34290;48.562;13.384;2023-04-24T01:11:39;6.93;;;2.33;;
34433;SDS011;34290;48.562;13.384;2023-04-24T01:14:09;4.10;;;2.00;;
34433;SDS011;34290;48.562;13.384;2023-04-24T01:16:36;5.00;;;2.22;;
34433;SDS011;34290;48.562;13.384;2023-04-24T01:19:04;5.97;;;2.63;;
34433;SDS011;34290;48.562;13.384;2023-04-24T01:21:32;3.25;;;2.40;;
34433;SDS011;34290;48.562;13.384;2023-04-24T01:24:04;5.15;;;2.50;;
34433;SDS011;34290;48.562;13.384;2023-04-24T01:26:32;3.75;;;2.40;;
34433;SDS011;34290;48.562;13.384;2023-04-24T01:28:59;3.67;;;2.35;;
34433;SDS011;34290;48.562;13.384;2023-04-24T01:31:26;6.13;;;2.50;;
34433;SDS011;34290;48.562;13.384;2023-04-24T01:33:54;4.03;;;2.47;;
34433;SDS011;34290;48.562;13.384;2023-04-24T01:36:22;4.53;;;2.60;;
34433;SDS011;34290;48.562;13.384;2023-04-24T01:38:52;5.35;;;2.50;;
34433;SDS011;34290;48.562;13.384;2023-04-24T01:41:20;3.40;;;2.45;;
34433;SDS011;34290;48.562;13.384;2023-04-24T01:43:48;5.53;;;2.42;;
34433;SDS011;34290;48.562;13.384;2023-04-24T01:46:15;5.20;;;2.60;;
34433;SDS011;34290;48.562;13.384;2023-04-24T01:48:42;4.05;;;2.30;;
34433;SDS011;34290;48.562;13.384;2023-04-24T01:51:11;3.38;;;2.45;;
34433;SDS011;34290;48.562;13.384;2023-04-24T01:53:38;6.13;;;2.90;;
34433;SDS011;34290;48.562;13.384;2023-04-24T01:56:05;3.05;;;2.25;;
34433;SDS011;34290;48.562;13.384;2023-04-24T01:58:34;5.72;;;2.47;;
34433;SDS011;34290;48.562;13.384;2023-04-24T02:01:02;5.13;;;2.63;;
34433;SDS011;34290;48.562;13.384;2023-04-24T02:03:29;4.25;;;2.67;;
34433;SDS011;34290;48.562;13.384;2023-04-24T02:05:56;3.55;;;2.50;;
34433;SDS011;34290;48.562;13.384;2023-04-24T02:08:23;4.47;;;2.40;;
34433;SDS011;34290;48.562;13.384;2023-04-24T02:10:50;4.50;;;2.25;;
34433;SDS011;34290;48.562;13.384;2023-04-24T02:13:17;4.57;;;2.50;;
34433;SDS011;34290;48.562;13.384;2023-04-24T02:15:45;3.40;;;2.40;;
34433;SDS011;34290;48.562;13.384;2023-04-24T02:18:12;6.13;;;2.30;;
34433;SDS011;34290;48.562;13.384;2023-04-24T02:20:40;4.13;;;2.58;;
34433;SDS011;34290;48.562;13.384;2023-04-24T02:23:07;6.78;;;2.30;;
34433;SDS011;34290;48.562;13.384;2023-04-24T02:25:34;4.13;;;2.30;;
34433;SDS011;34290;48.562;13.384;2023-04-24T02:28:01;4.07;;;2.47;;
34433;SDS011;34290;48.562;13.384;2023-04-24T02:30:28;4.05;;;2.42;;
34433;SDS011;34290;48.562;13.384;2023-04-24T02:32:57;4.72;;;2.35;;
34433;SDS011;34290;48.562;13.384;2023-04-24T02:35:24;4.05;;;2.47;;
34433;SDS011;34290;48.562;13.384;2023-04-24T02:37:51;7.60;;;2.55;;
34433;SDS011;34290;48.562;13.384;2023-04-24T02:40:18;4.50;;;2.70;;
34433;SDS011;34290;48.562;13.384;2023-04-24T02:42:45;3.70;;;2.40;;
34433;SDS011;34290;48.562;13.384;2023-04-24T02:45:11;4.82;;;2.70;;
34433;SDS011;34290;48.562;13.384;2023-04-24T02:47:38;4.28;;;2.42;;
34433;SDS011;34290;48.562;13.384;2023-04-24T02:50:07;5.55;;;2.70;;
34433;SDS011;34290;48.562;13.384;2023-04-24T02:52:35;5.15;;;2.90;;
34433;SDS011;34290;48.562;13.384;2023-04-24T02:55:02;4.05;;;2.88;;
34433;SDS011;34290;48.562;13.384;2023-04-24T02:57:29;5.60;;;3.10;;
34433;SDS011;34290;48.562;13.384;2023-04-24T02:59:56;3.58;;;2.45;;
34433;SDS011;34290;48.562;13.384;2023-04-24T03:02:23;6.20;;;3.03;;
34433;SDS011;34290;48.562;13.384;2023-04-24T03:04:50;5.72;;;3.20;;
34433;SDS011;34290;48.562;13.384;2023-04-24T03:07:19;5.72;;;3.03;;
34433;SDS011;34290;48.562;13.384;2023-04-24T03:09:46;9.35;;;3.33;;
34433;SDS011;34290;48.562;13.384;2023-04-24T03:12:13;6.78;;;3.10;;
34433;SDS011;34290;48.562;13.384;2023-04-24T03:14:42;8.35;;;3.50;;
34433;SDS011;34290;48.562;13.384;2023-04-24T03:17:09;6.20;;;3.08;;
34433;SDS011;34290;48.562;13.384;2023-04-24T03:19:36;7.20;;;3.03;;
34433;SDS011;34290;48.562;13.384;2023-04-24T03:22:02;6.47;;;3.22;;
34433;SDS011;34290;48.562;13.384;2023-04-24T03:24:31;4.13;;;2.90;;
34433;SDS011;34290;48.562;13.384;2023-04-24T03:26:58;6.13;;;3.08;;
34433;SDS011;34290;48.562;13.384;2023-04-24T03:29:25;6.15;;;2.67;;
34433;SDS011;34290;48.562;13.384;2023-04-24T03:31:52;6.85;;;3.22;;
34433;SDS011;34290;48.562;13.384;2023-04-24T03:34:19;6.03;;;2.88;;
34433;SDS011;34290;48.562;13.384;2023-04-24T03:36:46;7.05;;;3.05;;
34433;SDS011;34290;48.562;13.384;2023-04-24T03:39:13;4.53;;;2.90;;
34433;SDS011;34290;48.562;13.384;2023-04-24T03:41:42;5.40;;;2.90;;
34433;SDS011;34290;48.562;13.384;2023-04-24T03:44:09;5.47;;;3.05;;
34433;SDS011;34290;48.562;13.384;2023-04-24T03:46:36;4.63;;;2.90;;
34433;SDS011;34290;48.562;13.384;2023-04-24T03:49:02;7.18;;;3.03;;
34433;SDS011;34290;48.562;13.384;2023-04-24T03:51:29;4.68;;;2.90;;
34433;SDS011;34290;48.562;13.384;2023-04-24T03:53:57;4.20;;;3.00;;
34433;SDS011;34290;48.562;13.384;2023-04-24T03:56:24;6.22;;;3.30;;
34433;SDS011;34290;48.562;13.384;2023-04-24T03:58:52;4.75;;;3.03;;
34433;SDS011;34290;48.562;13.384;2023-04-24T04:01:19;5.75;;;2.80;;
34433;SDS011;34290;48.562;13.384;2023-04-24T04:03:46;5.05;;;2.90;;
34433;SDS011;34290;48.562;13.384;2023-04-24T04:06:13;5.15;;;2.72;;
34433;SDS011;34290;48.562;13.384;2023-04-24T04:08:40;4.50;;;3.00;;
34433;SDS011;34290;48.562;13.384;2023-04-24T04:11:07;5.22;;;2.78;;
34433;SDS011;34290;48.562;13.384;2023-04-24T04:13:34;3.92;;;2.75;;
34433;SDS011;34290;48.562;13.384;2023-04-24T04:16:03;5.13;;;3.08;;
34433;SDS011;34290;48.562;13.384;2023-04-24T04:18:30;4.90;;;2.78;;
34433;SDS011;34290;48.562;13.384;2023-04-24T04:20:57;5.45;;;2.78;;
34433;SDS011;34290;48.562;13.384;2023-04-24T04:23:26;3.10;;;2.35;;
34433;SDS011;34290;48.562;13.384;2023-04-24T04:25:53;4.10;;;2.63;;
34433;SDS011;34290;48.562;13.384;2023-04-24T04:28:20;5.28;;;2.63;;
34433;SDS011;34290;48.562;13.384;2023-04-24T04:30:47;4.88;;;2.80;;
34433;SDS011;34290;48.562;13.384;2023-04-24T04:33:15;3.83;;;2.42;;
34433;SDS011;34290;48.562;13.384;2023-04-24T04:35:43;4.03;;;2.90;;
34433;SDS011;34290;48.562;13.384;2023-04-24T04:38:13;3.88;;;2.70;;
34433;SDS011;34290;48.562;13.384;2023-04-24T04:40:41;5.95;;;3.00;;
34433;SDS011;34290;48.562;13.384;2023-04-24T04:43:08;4.30;;;2.80;;
34433;SDS011;34290;48.562;13.384;2023-04-24T04:45:36;5.22;;;2.53;;
34433;SDS011;34290;48.562;13.384;2023-04-24T04:48:04;3.80;;;2.50;;
34433;SDS011;34290;48.562;13.384;2023-04-24T04:50:34;4.85;;;2.80;;
34433;SDS011;34290;48.562;13.384;2023-04-24T04:53:01;6.75;;;2.63;;
34433;SDS011;34290;48.562;13.384;2023-04-24T04:55:28;5.30;;;2.60;;
34433;SDS011;34290;48.562;13.384;2023-04-24T04:57:55;4.38;;;2.55;;
34433;SDS011;34290;48.562;13.384;2023-04-24T05:00:22;3.78;;;2.35;;
34433;SDS011;34290;48.562;13.384;2023-04-24T05:02:50;3.85;;;2.03;;
34433;SDS011;34290;48.562;13.384;2023-04-24T05:05:17;6.47;;;2.07;;
34433;SDS011;34290;48.562;13.384;2023-04-24T05:07:46;3.28;;;2.17;;
34433;SDS011;34290;48.562;13.384;2023-04-24T05:10:13;2.85;;;1.88;;
34433;SDS011;34290;48.562;13.384;2023-04-24T05:12:42;3.53;;;1.90;;
34433;SDS011;34290;48.562;13.384;2023-04-24T05:15:09;3.22;;;1.95;;
34433;SDS011;34290;48.562;13.384;2023-04-24T05:17:36;2.72;;;2.08;;
34433;SDS011;34290;48.562;13.384;2023-04-24T05:20:05;5.10;;;2.10;;
34433;SDS011;34290;48.562;13.384;2023-04-24T05:22:34;2.25;;;1.75;;
34433;SDS011;34290;48.562;13.384;2023-04-24T05:25:03;4.15;;;2.00;;
34433;SDS011;34290;48.562;13.384;2023-04-24T05:27:31;3.00;;;1.90;;
34433;SDS011;34290;48.562;13.384;2023-04-24T05:29:57;3.25;;;1.85;;
34433;SDS011;34290;48.562;13.384;2023-04-24T05:32:24;2.27;;;1.60;;
34433;SDS011;34290;48.562;13.384;2023-04-24T05:34:52;2.35;;;1.77;;
34433;SDS011;34290;48.562;13.384;2023-04-24T05:37:19;4.17;;;1.80;;
34433;SDS011;34290;48.562;13.384;2023-04-24T05:39:46;2.80;;;2.17;;
34433;SDS011;34290;48.562;13.384;2023-04-24T05:42:16;2.20;;;1.80;;
34433;SDS011;34290;48.562;13.384;2023-04-24T05:44:43;2.30;;;1.80;;
34433;SDS011;34290;48.562;13.384;2023-04-24T05:47:10;1.85;;;1.70;;
34433;SDS011;34290;48.562;13.384;2023-04-24T05:49:37;2.42;;;1.88;;
34433;SDS011;34290;48.562;13.384;2023-04-24T05:52:04;2.25;;;1.58;;
34433;SDS011;34290;48.562;13.384;2023-04-24T05:54:33;3.80;;;1.75;;
34433;SDS011;34290;48.562;13.384;2023-04-24T05:57:01;2.08;;;1.63;;
34433;SDS011;34290;48.562;13.384;2023-04-24T05:59:33;2.10;;;1.60;;
34433;SDS011;34290;48.562;13.384;2023-04-24T06:02:03;2.70;;;1.70;;
34433;SDS011;34290;48.562;13.384;2023-04-24T06:04:30;1.67;;;1.50;;
34433;SDS011;34290;48.562;13.384;2023-04-24T06:06:57;2.37;;;1.60;;
34433;SDS011;34290;48.562;13.384;2023-04-24T06:09:25;2.50;;;1.80;;
34433;SDS011;34290;48.562;13.384;2023-04-24T06:11:52;3.00;;;1.80;;
34433;SDS011;34290;48.562;13.384;2023-04-24T06:14:19;3.22;;;1.60;;
34433;SDS011;34290;48.562;13.384;2023-04-24T06:16:48;2.47;;;1.60;;
34433;SDS011;34290;48.562;13.384;2023-04-24T06:19:15;3.33;;;1.90;;
34433;SDS011;34290;48.562;13.384;2023-04-24T06:21:42;4.03;;;1.50;;
34433;SDS011;34290;48.562;13.384;2023-04-24T06:24:09;3.47;;;1.50;;
34433;SDS011;34290;48.562;13.384;2023-04-24T06:26:37;3.03;;;1.65;;
34433;SDS011;34290;48.562;13.384;2023-04-24T06:29:06;3.28;;;1.70;;
34433;SDS011;34290;48.562;13.384;2023-04-24T06:31:36;2.40;;;1.80;;
34433;SDS011;34290;48.562;13.384;2023-04-24T06:34:05;2.17;;;1.60;;
34433;SDS011;34290;48.562;13.384;2023-04-24T06:36:32;2.38;;;1.70;;
34433;SDS011;34290;48.562;13.384;2023-04-24T06:38:59;3.88;;;1.60;;
34433;SDS011;34290;48.562;13.384;2023-04-24T06:41:27;3.88;;;1.85;;
34433;SDS011;34290;48.562;13.384;2023-04-24T06:43:54;3.28;;;1.58;;
34433;SDS011;34290;48.562;13.384;2023-04-24T06:46:22;2.28;;;1.80;;
34433;SDS011;34290;48.562;13.384;2023-04-24T06:48:51;3.15;;;1.60;;
34433;SDS011;34290;48.562;13.384;2023-04-24T06:51:22;3.05;;;1.70;;
34433;SDS011;34290;48.562;13.384;2023-04-24T06:53:49;2.35;;;1.77;;
34433;SDS011;34290;48.562;13.384;2023-04-24T06:56:17;3.03;;;1.88;;
34433;SDS011;34290;48.562;13.384;2023-04-24T06:58:44;3.53;;;1.80;;
34433;SDS011;34290;48.562;13.384;2023-04-24T07:01:11;2.97;;;1.83;;
34433;SDS011;34290;48.562;13.384;2023-04-24T07:03:38;3.72;;;1.80;;
34433;SDS011;34290;48.562;13.384;2023-04-24T07:06:05;3.92;;;1.77;;
34433;SDS011;34290;48.562;13.384;2023-04-24T07:08:34;5.75;;;1.73;;
34433;SDS011;34290;48.562;13.384;2023-04-24T07:11:01;3.15;;;1.90;;
34433;SDS011;34290;48.562;13.384;2023-04-24T07:13:29;2.13;;;1.88;;
34433;SDS011;34290;48.562;13.384;2023-04-24T07:15:56;1.88;;;1.52;;
34433;SDS011;34290;48.562;13.384;2023-04-24T07:18:23;3.10;;;1.88;;
34433;SDS011;34290;48.562;13.384;2023-04-24T07:20:50;4.80;;;1.80;;
34433;SDS011;34290;48.562;13.384;2023-04-24T07:23:17;5.57;;;2.22;;
34433;SDS011;34290;48.562;13.384;2023-04-24T07:25:46;3.05;;;1.80;;
34433;SDS011;34290;48.562;13.384;2023-04-24T07:28:13;2.75;;;1.90;;
34433;SDS011;34290;48.562;13.384;2023-04-24T07:30:40;1.65;;;1.40;;
34433;SDS011;34290;48.562;13.384;2023-04-24T07:33:10;2.85;;;1.70;;
34433;SDS011;34290;48.562;13.384;2023-04-24T07:35:38;3.00;;;1.70;;
34433;SDS011;34290;48.562;13.384;2023-04-24T07:38:05;4.47;;;1.73;;
34433;SDS011;34290;48.562;13.384;2023-04-24T07:40:32;2.00;;;1.60;;
34433;SDS011;34290;48.562;13.384;2023-04-24T07:43:00;3.00;;;1.90;;
34433;SDS011;34290;48.562;13.384;2023-04-24T07:45:27;4.20;;;1.70;;
34433;SDS011;34290;48.562;13.384;2023-04-24T07:47:56;2.55;;;1.88;;
34433;SDS011;34290;48.562;13.384;2023-04-24T07:50:23;4.07;;;2.03;;
34433;SDS011;34290;48.562;13.384;2023-04-24T07:52:50;2.72;;;2.00;;
34433;SDS011;34290;48.562;13.384;2023-04-24T07:55:17;3.97;;;1.90;;
34433;SDS011;34290;48.562;13.384;2023-04-24T07:57:44;4.60;;;1.70;;
34433;SDS011;34290;48.562;13.384;2023-04-24T08:00:13;2.00;;;1.75;;
34433;SDS011;34290;48.562;13.384;2023-04-24T08:02:40;2.95;;;1.58;;
34433;SDS011;34290;48.562;13.384;2023-04-24T08:05:07;4.55;;;1.85;;
34433;SDS011;34290;48.562;13.384;2023-04-24T08:07:35;2.78;;;1.80;;
34433;SDS011;34290;48.562;13.384;2023-04-24T08:10:02;1.73;;;1.40;;
34433;SDS011;34290;48.562;13.384;2023-04-24T08:12:29;2.85;;;1.83;;
34433;SDS011;34290;48.562;13.384;2023-04-24T08:14:56;6.50;;;1.70;;
34433;SDS011;34290;48.562;13.384;2023-04-24T08:17:25;2.17;;;1.40;;
34433;SDS011;34290;48.562;13.384;2023-04-24T08:19:52;2.38;;;1.52;;
34433;SDS011;34290;48.562;13.384;2023-04-24T08:22:26;3.03;;;1.52;;
34433;SDS011;34290;48.562;13.384;2023-04-24T08:24:53;3.58;;;1.50;;
34433;SDS011;34290;48.562;13.384;2023-04-24T08:27:21;3.85;;;1.52;;
34433;SDS011;34290;48.562;13.384;2023-04-24T08:29:48;1.70;;;1.60;;
34433;SDS011;34290;48.562;13.384;2023-04-24T08:32:15;2.08;;;1.48;;
34433;SDS011;34290;48.562;13.384;2023-04-24T08:34:44;2.10;;;1.55;;
34433;SDS011;34290;48.562;13.384;2023-04-24T08:37:11;2.47;;;1.42;;
34433;SDS011;34290;48.562;13.384;2023-04-24T08:39:38;1.55;;;1.35;;
34433;SDS011;34290;48.562;13.384;2023-04-24T08:42:05;1.85;;;1.40;;
34433;SDS011;34290;48.562;13.384;2023-04-24T08:44:33;2.45;;;1.30;;
34433;SDS011;34290;48.562;13.384;2023-04-24T08:47:02;1.65;;;1.50;;
34433;SDS011;34290;48.562;13.384;2023-04-24T08:49:29;1.77;;;1.27;;
34433;SDS011;34290;48.562;13.384;2023-04-24T08:51:58;1.83;;;1.38;;
34433;SDS011;34290;48.562;13.384;2023-04-24T08:54:26;3.92;;;1.77;;
34433;SDS011;34290;48.562;13.384;2023-04-24T08:56:53;6.20;;;1.75;;
34433;SDS011;34290;48.562;13.384;2023-04-24T08:59:26;2.70;;;1.30;;
34433;SDS011;34290;48.562;13.384;2023-04-24T09:01:54;1.85;;;1.40;;
34433;SDS011;34290;48.562;13.384;2023-04-24T09:04:21;2.58;;;1.40;;
34433;SDS011;34290;48.562;13.384;2023-04-24T09:06:49;2.08;;;1.50;;
34433;SDS011;34290;48.562;13.384;2023-04-24T09:09:18;1.60;;;1.30;;
34433;SDS011;34290;48.562;13.384;2023-04-24T09:11:45;2.83;;;1.40;;
34433;SDS011;34290;48.562;13.384;2023-04-24T09:14:15;1.40;;;1.27;;
34433;SDS011;34290;48.562;13.384;2023-04-24T09:16:42;2.55;;;1.33;;
34433;SDS011;34290;48.562;13.384;2023-04-24T09:19:09;3.15;;;1.30;;
34433;SDS011;34290;48.562;13.384;2023-04-24T09:21:36;1.50;;;1.40;;
34433;SDS011;34290;48.562;13.384;2023-04-24T09:24:04;2.35;;;1.60;;
34433;SDS011;34290;48.562;13.384;2023-04-24T09:26:35;1.75;;;1.42;;
34433;SDS011;34290;48.562;13.384;2023-04-24T09:29:03;5.32;;;1.75;;
34433;SDS011;34290;48.562;13.384;2023-04-24T09:31:30;2.42;;;1.55;;
34433;SDS011;34290;48.562;13.384;2023-04-24T09:33:58;1.65;;;1.52;;
34433;SDS011;34290;48.562;13.384;2023-04-24T09:36:28;2.13;;;1.48;;
34433;SDS011;34290;48.562;13.384;2023-04-24T09:38:59;3.10;;;1.60;;
34433;SDS011;34290;48.562;13.384;2023-04-24T09:41:27;2.85;;;1.40;;
34433;SDS011;34290;48.562;13.384;2023-04-24T09:43:56;1.88;;;1.60;;
34433;SDS011;34290;48.562;13.384;2023-04-24T09:46:30;3.53;;;1.50;;
34433;SDS011;34290;48.562;13.384;2023-04-24T09:48:58;1.50;;;1.40;;
34433;SDS011;34290;48.562;13.384;2023-04-24T09:51:35;2.05;;;1.58;;
34433;SDS011;34290;48.562;13.384;2023-04-24T09:54:03;2.28;;;1.30;;
34433;SDS011;34290;48.562;13.384;2023-04-24T09:56:32;4.40;;;1.80;;
34433;SDS011;34290;48.562;13.384;2023-04-24T09:59:07;2.22;;;1.42;;
34433;SDS011;34290;48.562;13.384;2023-04-24T10:01:34;2.97;;;1.65;;
34433;SDS011;34290;48.562;13.384;2023-04-24T10:04:03;3.08;;;1.60;;
34433;SDS011;34290;48.562;13.384;2023-04-24T10:06:32;2.90;;;1.52;;
34433;SDS011;34290;48.562;13.384;2023-04-24T10:09:01;1.48;;;1.30;;
34433;SDS011;34290;48.562;13.384;2023-04-24T10:11:28;5.38;;;1.83;;
34433;SDS011;34290;48.562;13.384;2023-04-24T10:13:56;6.65;;;2.22;;
34433;SDS011;34290;48.562;13.384;2023-04-24T10:16:26;11.70;;;2.15;;
34433;SDS011;34290;48.562;13.384;2023-04-24T10:18:53;1.73;;;1.23;;
34433;SDS011;34290;48.562;13.384;2023-04-24T10:21:21;2.65;;;1.40;;
34433;SDS011;34290;48.562;13.384;2023-04-24T10:23:49;4.32;;;2.85;;
34433;SDS011;34290;48.562;13.384;2023-04-24T10:26:17;8.10;;;1.52;;
34433;SDS011;34290;48.562;13.384;2023-04-24T10:28:45;1.70;;;1.40;;
34433;SDS011;34290;48.562;13.384;2023-04-24T10:31:14;1.75;;;1.42;;
34433;SDS011;34290;48.562;13.384;2023-04-24T10:33:43;1.60;;;1.50;;
34433;SDS011;34290;48.562;13.384;2023-04-24T10:36:12;1.25;;;1.15;;
34433;SDS011;34290;48.562;13.384;2023-04-24T10:38:41;1.75;;;1.27;;
34433;SDS011;34290;48.562;13.384;2023-04-24T10:41:10;1.85;;;1.30;;
34433;SDS011;34290;48.562;13.384;2023-04-24T10:43:41;2.22;;;1.02;;
34433;SDS011;34290;48.562;13.384;2023-04-24T10:46:09;3.58;;;1.20;;
34433;SDS011;34290;48.562;13.384;2023-04-24T10:48:41;1.48;;;1.30;;
34433;SDS011;34290;48.562;13.384;2023-04-24T10:51:17;1.75;;;1.20;;
34433;SDS011;34290;48.562;13.384;2023-04-24T10:53:47;1.30;;;1.20;;
34433;SDS011;34290;48.562;13.384;2023-04-24T10:56:16;1.40;;;1.30;;
34433;SDS011;34290;48.562;13.384;2023-04-24T10:58:44;1.65;;;1.13;;
34433;SDS011;34290;48.562;13.384;2023-04-24T11:01:24;2.00;;;1.10;;
34433;SDS011;34290;48.562;13.384;2023-04-24T11:03:55;1.35;;;1.00;;
34433;SDS011;34290;48.562;13.384;2023-04-24T11:06:29;2.65;;;1.10;;
34433;SDS011;34290;48.562;13.384;2023-04-24T11:09:04;1.02;;;0.93;;
34433;SDS011;34290;48.562;13.384;2023-04-24T11:11:32;2.25;;;1.10;;
34433;SDS011;34290;48.562;13.384;2023-04-24T11:14:01;3.15;;;1.27;;
34433;SDS011;34290;48.562;13.384;2023-04-24T11:16:33;5.30;;;1.10;;
34433;SDS011;34290;48.562;13.384;2023-04-24T11:19:18;1.73;;;1.17;;
34433;SDS011;34290;48.562;13.384;2023-04-24T11:21:49;2.47;;;1.10;;
34433;SDS011;34290;48.562;13.384;2023-04-24T11:24:25;2.35;;;1.23;;
34433;SDS011;34290;48.562;13.384;2023-04-24T11:26:57;2.05;;;1.40;;
34433;SDS011;34290;48.562;13.384;2023-04-24T11:29:39;3.33;;;1.23;;
34433;SDS011;34290;48.562;13.384;2023-04-24T11:34:59;1.33;;;1.23;;
34433;SDS011;34290;48.562;13.384;2023-04-24T11:37:28;1.90;;;1.40;;
34433;SDS011;34290;48.562;13.384;2023-04-24T11:39:59;1.65;;;1.45;;
34433;SDS011;34290;48.562;13.384;2023-04-24T11:42:26;1.52;;;1.42;;
34433;SDS011;34290;48.562;13.384;2023-04-24T11:44:54;4.00;;;1.40;;
34433;SDS011;34290;48.562;13.384;2023-04-24T11:47:27;2.92;;;1.65;;
34433;SDS011;34290;48.562;13.384;2023-04-24T11:49:55;2.33;;;1.50;;
34433;SDS011;34290;48.562;13.384;2023-04-24T11:52:23;5.75;;;1.50;;
34433;SDS011;34290;48.562;13.384;2023-04-24T11:54:50;1.40;;;1.30;;
34433;SDS011;34290;48.562;13.384;2023-04-24T11:57:18;1.42;;;1.27;;
34433;SDS011;34290;48.562;13.384;2023-04-24T11:59:46;1.40;;;1.30;;
34433;SDS011;34290;48.562;13.384;2023-04-24T12:02:20;1.98;;;1.35;;
34433;SDS011;34290;48.562;13.384;2023-04-24T12:04:48;3.05;;;1.73;;
34433;SDS011;34290;48.562;13.384;2023-04-24T12:07:15;2.75;;;1.75;;
34433;SDS011;34290;48.562;13.384;2023-04-24T12:09:45;2.47;;;1.70;;
34433;SDS011;34290;48.562;13.384;2023-04-24T12:12:13;2.92;;;1.70;;
34433;SDS011;34290;48.562;13.384;2023-04-24T12:14:45;2.50;;;1.67;;
34433;SDS011;34290;48.562;13.384;2023-04-24T12:17:14;2.83;;;1.60;;
34433;SDS011;34290;48.562;13.384;2023-04-24T12:19:45;3.05;;;1.58;;
34433;SDS011;34290;48.562;13.384;2023-04-24T12:22:13;1.67;;;1.55;;
34433;SDS011;34290;48.562;13.384;2023-04-24T12:24:57;3.33;;;2.20;;
34433;SDS011;34290;48.562;13.384;2023-04-24T12:27:31;3.38;;;2.15;;
34433;SDS011;34290;48.562;13.384;2023-04-24T12:29:59;6.40;;;4.15;;
34433;SDS011;34290;48.562;13.384;2023-04-24T12:32:27;5.32;;;2.33;;
34433;SDS011;34290;48.562;13.384;2023-04-24T12:34:55;2.88;;;2.40;;
34433;SDS011;34290;48.562;13.384;2023-04-24T12:37:23;2.55;;;1.90;;
34433;SDS011;34290;48.562;13.384;2023-04-24T12:40:02;3.30;;;1.95;;
34433;SDS011;34290;48.562;13.384;2023-04-24T12:42:32;3.67;;;2.63;;
34433;SDS011;34290;48.562;13.384;2023-04-24T12:45:01;6.38;;;3.63;;
34433;SDS011;34290;48.562;13.384;2023-04-24T12:47:30;3.30;;;2.63;;
34433;SDS011;34290;48.562;13.384;2023-04-24T12:49:58;4.45;;;2.22;;
34433;SDS011;34290;48.562;13.384;2023-04-24T12:52:26;3.03;;;2.08;;
34433;SDS011;34290;48.562;13.384;2023-04-24T12:54:54;2.83;;;1.80;;
34433;SDS011;34290;48.562;13.384;2023-04-24T12:57:24;4.15;;;1.90;;
34433;SDS011;34290;48.562;13.384;2023-04-24T12:59:53;4.28;;;3.13;;
34433;SDS011;34290;48.562;13.384;2023-04-24T13:02:21;3.80;;;1.92;;
34433;SDS011;34290;48.562;13.384;2023-04-24T13:04:49;4.60;;;3.15;;
34433;SDS011;34290;48.562;13.384;2023-04-24T13:07:16;3.33;;;2.10;;
34433;SDS011;34290;48.562;13.384;2023-04-24T13:09:44;2.80;;;1.90;;
34433;SDS011;34290;48.562;13.384;2023-04-24T13:12:11;3.50;;;2.33;;
34433;SDS011;34290;48.562;13.384;2023-04-24T13:14:39;7.57;;;3.92;;
34433;SDS011;34290;48.562;13.384;2023-04-24T13:17:06;6.57;;;4.07;;
34433;SDS011;34290;48.562;13.384;2023-04-24T13:19:37;6.85;;;3.60;;
34433;SDS011;34290;48.562;13.384;2023-04-24T13:22:04;6.78;;;2.55;;
34433;SDS011;34290;48.562;13.384;2023-04-24T13:24:32;5.75;;;2.08;;
34433;SDS011;34290;48.562;13.384;2023-04-24T13:26:59;2.95;;;1.70;;
34433;SDS011;34290;48.562;13.384;2023-04-24T13:29:27;1.52;;;1.42;;
34433;SDS011;34290;48.562;13.384;2023-04-24T13:31:56;2.97;;;1.50;;
34433;SDS011;34290;48.562;13.384;2023-04-24T13:34:23;3.15;;;1.90;;
34433;SDS011;34290;48.562;13.384;2023-04-24T13:36:51;1.60;;;1.50;;
34433;SDS011;34290;48.562;13.384;2023-04-24T13:39:18;1.85;;;1.40;;
34433;SDS011;34290;48.562;13.384;2023-04-24T13:41:46;2.50;;;1.60;;
34433;SDS011;34290;48.562;13.384;2023-04-24T13:44:13;3.22;;;1.58;;
34433;SDS011;34290;48.562;13.384;2023-04-24T13:46:40;4.60;;;1.60;;
34433;SDS011;34290;48.562;13.384;2023-04-24T13:49:10;1.80;;;1.60;;
34433;SDS011;34290;48.562;13.384;2023-04-24T13:51:37;1.75;;;1.65;;
34433;SDS011;34290;48.562;13.384;2023-04-24T13:54:05;3.95;;;1.90;;
34433;SDS011;34290;48.562;13.384;2023-04-24T13:56:32;3.60;;;1.38;;
34433;SDS011;34290;48.562;13.384;2023-04-24T13:58:59;2.05;;;1.80;;
34433;SDS011;34290;48.562;13.384;2023-04-24T14:01:26;2.00;;;1.38;;
34433;SDS011;34290;48.562;13.384;2023-04-24T14:03:53;4.13;;;1.85;;
34433;SDS011;34290;48.562;13.384;2023-04-24T14:06:23;1.50;;;1.40;;
34433;SDS011;34290;48.562;13.384;2023-04-24T14:08:50;1.45;;;1.35;;
34433;SDS011;34290;48.562;13.384;2023-04-24T14:11:18;1.70;;;1.55;;
34433;SDS011;34290;48.562;13.384;2023-04-24T14:13:48;2.53;;;1.60;;
34433;SDS011;34290;48.562;13.384;2023-04-24T14:16:15;5.15;;;3.25;;
34433;SDS011;34290;48.562;13.384;2023-04-24T14:18:42;2.40;;;1.50;;
34433;SDS011;34290;48.562;13.384;2023-04-24T14:21:09;5.32;;;1.40;;
34433;SDS011;34290;48.562;13.384;2023-04-24T14:23:38;2.15;;;1.70;;
34433;SDS011;34290;48.562;13.384;2023-04-24T14:26:05;2.00;;;1.33;;
34433;SDS011;34290;48.562;13.384;2023-04-24T14:28:32;2.10;;;1.45;;
34433;SDS011;34290;48.562;13.384;2023-04-24T14:30:59;2.00;;;1.40;;
34433;SDS011;34290;48.562;13.384;2023-04-24T14:33:26;2.13;;;1.33;;
34433;SDS011;34290;48.562;13.384;2023-04-24T14:35:53;1.48;;;1.33;;
34433;SDS011;34290;48.562;13.384;2023-04-24T14:38:20;1.58;;;1.30;;
34433;SDS011;34290;48.562;13.384;2023-04-24T14:40:49;1.58;;;1.48;;